createdAt,value
2023-01-29T00:01:49.633Z,18.42
2023-01-29T00:04:17.038Z,21.40
2023-01-29T00:06:44.586Z,19.90
2023-01-29T00:09:12.859Z,20.35
2023-01-29T00:11:40.436Z,21.08
2023-01-29T00:14:07.948Z,20.33
2023-01-29T00:16:35.256Z,18.45
2023-01-29T00:19:02.954Z,18.97
2023-01-29T00:21:31.126Z,16.92
2023-01-29T00:23:58.858Z,20.95
2023-01-29T00:26:26.273Z,20.60
2023-01-29T00:28:53.599Z,20.08
2023-01-29T00:31:22.236Z,21.23
2023-01-29T00:33:50.565Z,19.55
2023-01-29T00:36:19.080Z,22.13
2023-01-29T00:38:54.793Z,18.67
2023-01-29T00:41:42.082Z,20.90
2023-01-29T00:44:28.065Z,20.87
2023-01-29T00:46:55.335Z,22.00
2023-01-29T00:49:22.710Z,20.08
2023-01-29T00:52:23.139Z,19.30
2023-01-29T00:54:50.650Z,19.90
2023-01-29T00:57:17.864Z,19.67
2023-01-29T00:59:45.149Z,21.42
2023-01-29T01:02:31.293Z,21.50
2023-01-29T01:04:58.589Z,18.92
2023-01-29T01:07:26.012Z,18.30
2023-01-29T01:10:11.837Z,20.03
2023-01-29T01:12:39.466Z,21.27
2023-01-29T01:15:06.902Z,20.38
2023-01-29T01:17:34.947Z,17.25
2023-01-29T01:20:02.484Z,20.95
2023-01-29T01:22:29.924Z,18.47
2023-01-29T01:24:57.190Z,21.20
2023-01-29T01:27:25.662Z,17.83
2023-01-29T01:29:53.227Z,16.83
2023-01-29T01:32:20.482Z,16.70
2023-01-29T01:34:48.085Z,14.90
2023-01-29T01:37:15.788Z,18.05
2023-01-29T01:39:43.465Z,17.00
2023-01-29T01:42:13.863Z,18.38
2023-01-29T01:44:55.441Z,16.88
2023-01-29T01:47:29.592Z,17.40
2023-01-29T01:49:57.697Z,17.25
2023-01-29T01:52:25.450Z,18.55
2023-01-29T01:54:52.816Z,16.85
2023-01-29T01:57:25.685Z,19.58
2023-01-29T01:59:57.606Z,20.37
2023-01-29T02:02:44.154Z,16.92
2023-01-29T02:05:31.270Z,19.45
2023-01-29T02:08:17.591Z,17.15
2023-01-29T02:10:49.660Z,19.67
2023-01-29T02:13:18.707Z,21.57
2023-01-29T02:15:48.674Z,17.98
2023-01-29T02:18:17.784Z,18.60
2023-01-29T02:20:50.277Z,18.52
2023-01-29T02:23:36.049Z,20.02
2023-01-29T02:26:29.624Z,18.13
2023-01-29T02:29:22.700Z,18.80
2023-01-29T02:31:56.057Z,19.05
2023-01-29T02:34:29.263Z,20.52
2023-01-29T02:37:02.945Z,21.13
2023-01-29T02:39:30.394Z,22.20
2023-01-29T02:42:12.791Z,21.92
2023-01-29T02:44:46.385Z,21.95
2023-01-29T02:47:16.697Z,18.83
2023-01-29T02:49:44.204Z,20.90
2023-01-29T02:52:27.461Z,22.33
2023-01-29T02:55:04.831Z,21.52
2023-01-29T02:57:35.547Z,21.13
2023-01-29T03:00:07.009Z,20.05
2023-01-29T03:02:42.020Z,22.63
2023-01-29T03:05:12.759Z,21.30
2023-01-29T03:07:46.395Z,20.52
2023-01-29T03:10:27.122Z,24.35
2023-01-29T03:12:57.284Z,23.35
2023-01-29T03:15:28.528Z,22.25
2023-01-29T03:18:27.750Z,23.10
2023-01-29T03:21:25.626Z,23.15
2023-01-29T03:24:13.706Z,22.88
2023-01-29T03:27:02.587Z,22.48
2023-01-29T03:29:54.457Z,22.58
2023-01-29T03:32:28.827Z,22.17
2023-01-29T03:35:04.020Z,22.05
2023-01-29T03:37:33.024Z,26.00
2023-01-29T03:40:00.369Z,23.88
2023-01-29T03:42:30.862Z,26.02
2023-01-29T03:45:11.803Z,26.30
2023-01-29T03:47:52.010Z,23.30
2023-01-29T03:50:35.593Z,24.63
2023-01-29T03:53:12.830Z,24.30
2023-01-29T03:56:03.695Z,24.00
2023-01-29T03:58:37.661Z,22.77
2023-01-29T04:01:26.228Z,25.63
2023-01-29T04:03:55.342Z,25.23
2023-01-29T04:06:31.265Z,25.13
2023-01-29T04:09:08.161Z,25.30
2023-01-29T04:11:40.770Z,25.73
2023-01-29T04:14:09.768Z,23.83
2023-01-29T04:16:42.791Z,24.55
2023-01-29T04:19:20.797Z,24.08
2023-01-29T04:21:51.523Z,25.55
2023-01-29T04:24:19.676Z,25.70
2023-01-29T04:26:53.073Z,23.40
2023-01-29T04:29:30.278Z,27.70
2023-01-29T04:31:59.936Z,26.23
2023-01-29T04:34:34.515Z,26.77
2023-01-29T04:37:11.003Z,24.77
2023-01-29T04:39:46.153Z,24.45
2023-01-29T04:42:16.315Z,26.40
2023-01-29T04:44:55.263Z,27.33
2023-01-29T04:47:32.285Z,28.33
2023-01-29T04:50:18.998Z,26.00
2023-01-29T04:52:51.130Z,24.80
2023-01-29T04:55:25.188Z,23.55
2023-01-29T04:57:52.561Z,26.98
2023-01-29T05:00:29.005Z,28.08
2023-01-29T05:02:57.499Z,23.70
2023-01-29T05:05:24.796Z,26.73
2023-01-29T05:07:52.111Z,26.90
2023-01-29T05:10:20.467Z,24.45
2023-01-29T05:12:50.616Z,24.08
2023-01-29T05:15:20.903Z,22.77
2023-01-29T05:17:48.213Z,25.60
2023-01-29T05:20:15.741Z,27.75
2023-01-29T05:22:43.358Z,27.30
2023-01-29T05:25:33.782Z,24.58
2023-01-29T05:28:04.533Z,24.13
2023-01-29T05:30:36.049Z,24.65
2023-01-29T05:33:03.503Z,25.95
2023-01-29T05:35:30.798Z,24.20
2023-01-29T05:37:58.106Z,24.80
2023-01-29T05:40:25.518Z,30.40
2023-01-29T05:42:52.928Z,24.27
2023-01-29T05:45:20.659Z,25.15
2023-01-29T05:47:47.936Z,26.80
2023-01-29T05:50:15.953Z,24.75
2023-01-29T05:52:43.645Z,23.80
2023-01-29T05:55:11.042Z,25.75
2023-01-29T05:57:38.428Z,28.08
2023-01-29T06:00:05.869Z,24.30
2023-01-29T06:02:39.665Z,23.15
2023-01-29T06:05:07.055Z,24.87
2023-01-29T06:07:34.483Z,24.25
2023-01-29T06:10:01.746Z,27.85
2023-01-29T06:12:29.066Z,27.27
2023-01-29T06:14:56.326Z,24.13
2023-01-29T06:17:23.930Z,24.87
2023-01-29T06:19:51.142Z,23.02
2023-01-29T06:22:19.543Z,26.67
2023-01-29T06:24:46.757Z,24.45
2023-01-29T06:27:14.161Z,25.30
2023-01-29T06:29:41.356Z,23.43
2023-01-29T06:32:08.674Z,23.13
2023-01-29T06:34:35.956Z,22.75
2023-01-29T06:37:03.275Z,24.52
2023-01-29T06:39:30.552Z,26.40
2023-01-29T06:41:57.847Z,18.93
2023-01-29T06:44:25.097Z,25.67
2023-01-29T06:46:52.322Z,26.35
2023-01-29T06:49:19.620Z,22.98
2023-01-29T06:51:46.953Z,24.33
2023-01-29T06:54:14.288Z,23.37
2023-01-29T06:56:41.696Z,26.48
2023-01-29T06:59:08.956Z,23.00
2023-01-29T07:01:41.035Z,21.83
2023-01-29T07:04:08.370Z,21.83
2023-01-29T07:06:35.591Z,21.80
2023-01-29T07:09:03.811Z,20.77
2023-01-29T07:11:31.929Z,23.05
2023-01-29T07:13:59.201Z,22.08
2023-01-29T07:16:26.665Z,23.70
2023-01-29T07:18:53.978Z,23.80
2023-01-29T07:21:21.411Z,23.15
2023-01-29T07:23:48.700Z,22.77
2023-01-29T07:26:16.277Z,23.95
2023-01-29T07:28:43.596Z,24.02
2023-01-29T07:31:12.575Z,22.77
2023-01-29T07:33:40.000Z,25.00
2023-01-29T07:36:11.415Z,21.25
2023-01-29T07:38:38.669Z,19.73
2023-01-29T07:41:06.010Z,21.95
2023-01-29T07:43:33.506Z,20.13
2023-01-29T07:46:04.895Z,21.77
2023-01-29T07:48:32.395Z,23.98
2023-01-29T07:50:59.926Z,22.02
2023-01-29T07:53:28.120Z,22.17
2023-01-29T07:55:55.443Z,24.53
2023-01-29T07:58:22.714Z,26.70
2023-01-29T08:00:50.161Z,20.38
2023-01-29T08:03:18.527Z,24.00
2023-01-29T08:05:46.223Z,18.25
2023-01-29T08:08:13.870Z,25.63
2023-01-29T08:10:41.604Z,22.80
2023-01-29T08:13:09.452Z,18.65
2023-01-29T08:15:39.027Z,25.33
2023-01-29T08:18:06.781Z,17.02
2023-01-29T08:20:34.055Z,18.73
2023-01-29T08:23:05.988Z,19.02
2023-01-29T08:25:33.720Z,22.00
2023-01-29T08:28:01.616Z,21.85
2023-01-29T08:30:30.146Z,19.42
2023-01-29T08:32:57.427Z,19.53
2023-01-29T08:35:25.045Z,21.75
2023-01-29T08:37:56.345Z,19.40
2023-01-29T08:40:23.655Z,20.98
2023-01-29T08:42:50.913Z,17.65
2023-01-29T08:45:18.475Z,22.57
2023-01-29T08:47:46.963Z,21.33
2023-01-29T08:50:14.275Z,21.52
2023-01-29T08:52:41.524Z,21.70
2023-01-29T08:55:09.216Z,20.85
2023-01-29T08:57:36.740Z,20.53
2023-01-29T09:00:05.209Z,20.05
2023-01-29T09:02:32.619Z,19.85
2023-01-29T09:04:59.938Z,17.08
2023-01-29T09:07:27.263Z,21.08
2023-01-29T09:09:55.309Z,19.40
2023-01-29T09:12:22.607Z,19.13
2023-01-29T09:14:49.838Z,19.17
2023-01-29T09:17:17.157Z,17.75
2023-01-29T09:19:44.621Z,22.02
2023-01-29T09:22:12.042Z,19.93
2023-01-29T09:24:39.461Z,16.77
2023-01-29T09:27:06.731Z,20.95
2023-01-29T09:29:35.878Z,23.15
2023-01-29T09:32:04.745Z,22.25
2023-01-29T09:34:32.055Z,21.30
2023-01-29T09:36:59.281Z,23.52
2023-01-29T09:39:26.841Z,23.92
2023-01-29T09:42:00.102Z,19.67
2023-01-29T09:44:27.414Z,22.95
2023-01-29T09:46:55.140Z,24.50
2023-01-29T09:49:27.096Z,21.85
2023-01-29T09:51:59.319Z,20.38
2023-01-29T09:54:30.186Z,19.52
2023-01-29T09:56:57.914Z,21.75
2023-01-29T09:59:27.289Z,21.27
2023-01-29T10:02:09.818Z,19.52
2023-01-29T10:04:46.325Z,20.75
2023-01-29T10:07:22.802Z,21.50
2023-01-29T10:10:13.077Z,23.90
2023-01-29T10:12:57.033Z,17.10
2023-01-29T10:15:36.574Z,21.20
2023-01-29T10:18:03.810Z,25.10
2023-01-29T10:20:50.148Z,22.50
2023-01-29T10:23:29.796Z,22.30
2023-01-29T10:25:57.420Z,22.17
2023-01-29T10:28:30.510Z,24.60
2023-01-29T10:31:04.790Z,20.08
2023-01-29T10:33:49.635Z,20.65
2023-01-29T10:36:32.965Z,22.88
2023-01-29T10:39:00.288Z,25.77
2023-01-29T10:41:32.486Z,21.40
2023-01-29T10:44:02.970Z,25.90
2023-01-29T10:46:41.853Z,26.08
2023-01-29T10:49:09.111Z,29.00
2023-01-29T10:51:42.347Z,25.07
2023-01-29T10:54:18.684Z,23.95
2023-01-29T10:56:50.616Z,25.27
2023-01-29T10:59:17.960Z,29.10
2023-01-29T11:01:45.268Z,23.27
2023-01-29T11:04:13.027Z,27.40
2023-01-29T11:06:40.601Z,21.23
2023-01-29T11:09:26.819Z,27.23
2023-01-29T11:12:14.331Z,24.92
2023-01-29T11:15:00.565Z,24.05
2023-01-29T11:17:28.174Z,26.03
2023-01-29T11:19:56.000Z,27.38
2023-01-29T11:22:27.718Z,25.20
2023-01-29T11:25:13.576Z,27.88
2023-01-29T11:27:44.363Z,26.83
2023-01-29T11:30:16.320Z,26.33
2023-01-29T11:32:44.130Z,26.05
2023-01-29T11:35:17.727Z,29.10
2023-01-29T11:37:45.928Z,27.25
2023-01-29T11:40:19.552Z,31.17
2023-01-29T11:42:47.285Z,26.70
2023-01-29T11:45:20.562Z,29.75
2023-01-29T11:47:53.761Z,25.23
2023-01-29T11:50:22.858Z,28.48
2023-01-29T11:52:50.160Z,28.13
2023-01-29T11:55:19.128Z,26.50
2023-01-29T11:57:52.255Z,22.10
2023-01-29T12:00:25.355Z,30.02
2023-01-29T12:02:57.488Z,22.65
2023-01-29T12:05:26.674Z,26.48
2023-01-29T12:07:55.518Z,27.77
2023-01-29T12:10:35.610Z,26.70
2023-01-29T12:13:12.097Z,28.35
2023-01-29T12:15:40.172Z,34.28
2023-01-29T12:18:17.302Z,25.13
2023-01-29T12:20:51.247Z,25.00
2023-01-29T12:23:36.957Z,25.95
2023-01-29T12:26:16.145Z,20.48
2023-01-29T12:28:49.486Z,30.75
2023-01-29T12:31:24.911Z,27.65
2023-01-29T12:33:54.697Z,30.60
2023-01-29T12:36:28.112Z,28.42
2023-01-29T12:38:55.997Z,29.27
2023-01-29T12:41:31.435Z,28.48
2023-01-29T12:44:03.408Z,24.88
2023-01-29T12:46:45.240Z,30.30
2023-01-29T12:49:16.673Z,28.50
2023-01-29T12:51:50.139Z,26.55
2023-01-29T12:54:20.823Z,27.48
2023-01-29T12:56:50.019Z,21.85
2023-01-29T12:59:28.358Z,24.57
2023-01-29T13:02:19.454Z,26.75
2023-01-29T13:04:56.740Z,28.63
2023-01-29T13:07:29.102Z,26.20
2023-01-29T13:10:00.291Z,24.23
2023-01-29T13:12:27.608Z,22.23
2023-01-29T13:14:57.017Z,26.23
2023-01-29T13:17:26.877Z,22.73
2023-01-29T13:19:56.155Z,28.17
2023-01-29T13:22:26.189Z,24.00
2023-01-29T13:25:04.200Z,24.60
2023-01-29T13:27:38.021Z,24.15
2023-01-29T13:30:05.558Z,21.38
2023-01-29T13:32:35.405Z,23.55
2023-01-29T13:35:07.574Z,21.17
2023-01-29T13:37:35.899Z,24.73
2023-01-29T13:40:04.336Z,20.15
2023-01-29T13:42:48.498Z,20.33
2023-01-29T13:45:21.178Z,18.75
2023-01-29T13:47:49.234Z,22.77
2023-01-29T13:50:19.629Z,26.20
2023-01-29T13:52:53.382Z,22.75
2023-01-29T13:55:30.994Z,22.92
2023-01-29T13:58:00.403Z,20.42
2023-01-29T14:00:33.847Z,20.13
2023-01-29T14:03:01.136Z,16.60
2023-01-29T14:05:31.690Z,24.98
2023-01-29T14:08:02.642Z,20.38
2023-01-29T14:10:31.354Z,20.02
2023-01-29T14:13:04.796Z,22.67
2023-01-29T14:15:32.145Z,27.80
2023-01-29T14:18:11.594Z,23.15
2023-01-29T14:20:50.870Z,21.38
2023-01-29T14:23:36.874Z,19.95
2023-01-29T14:26:05.894Z,19.23
2023-01-29T14:28:34.425Z,19.43
2023-01-29T14:31:02.019Z,18.65
2023-01-29T14:33:41.858Z,23.83
2023-01-29T14:36:12.856Z,23.05
2023-01-29T14:38:41.362Z,20.58
2023-01-29T14:41:15.044Z,20.43
2023-01-29T14:43:42.343Z,20.17
2023-01-29T14:46:28.648Z,24.38
2023-01-29T14:48:55.951Z,20.80
2023-01-29T14:51:24.046Z,22.50
2023-01-29T14:54:00.574Z,21.40
2023-01-29T14:56:34.116Z,20.98
2023-01-29T14:59:01.413Z,19.30
2023-01-29T15:01:31.908Z,21.98
2023-01-29T15:04:15.467Z,24.15
2023-01-29T15:06:45.823Z,21.53
2023-01-29T15:09:18.710Z,20.77
2023-01-29T15:12:24.559Z,18.70
2023-01-29T15:15:01.254Z,21.40
2023-01-29T15:17:42.166Z,27.30
2023-01-29T15:20:28.330Z,21.20
2023-01-29T15:22:55.720Z,21.90
2023-01-29T15:25:23.133Z,19.67
2023-01-29T15:27:51.088Z,16.77
2023-01-29T15:30:23.649Z,20.73
2023-01-29T15:32:51.004Z,20.83
2023-01-29T15:35:31.917Z,18.60
2023-01-29T15:38:03.917Z,19.83
2023-01-29T15:40:31.393Z,19.52
2023-01-29T15:42:58.679Z,30.17
2023-01-29T15:45:29.319Z,20.20
2023-01-29T15:47:58.973Z,19.83
2023-01-29T15:50:26.418Z,21.05
2023-01-29T15:52:55.345Z,15.88
2023-01-29T15:55:24.311Z,22.38
2023-01-29T15:57:51.740Z,22.13
2023-01-29T16:00:27.616Z,22.40
2023-01-29T16:02:55.608Z,22.80
2023-01-29T16:05:33.103Z,24.30
2023-01-29T16:08:00.860Z,23.02
2023-01-29T16:10:29.652Z,21.47
2023-01-29T16:12:57.112Z,19.98
2023-01-29T16:15:33.439Z,22.52
2023-01-29T16:18:01.607Z,24.35
2023-01-29T16:20:31.725Z,20.35
2023-01-29T16:22:59.348Z,17.33
2023-01-29T16:25:26.709Z,17.88
2023-01-29T16:27:54.062Z,19.02
2023-01-29T16:30:26.457Z,22.63
2023-01-29T16:32:53.890Z,17.05
2023-01-29T16:35:21.143Z,19.37
2023-01-29T16:37:49.467Z,17.10
2023-01-29T16:40:26.224Z,22.08
2023-01-29T16:43:19.584Z,21.77
2023-01-29T16:46:18.404Z,21.08
2023-01-29T16:48:45.958Z,21.80
2023-01-29T16:51:14.814Z,22.27
2023-01-29T16:53:53.615Z,24.30
2023-01-29T16:56:23.029Z,24.05
2023-01-29T16:58:51.318Z,27.58
2023-01-29T17:01:18.967Z,25.03
2023-01-29T17:03:51.295Z,24.08
2023-01-29T17:06:28.564Z,26.63
2023-01-29T17:08:56.150Z,25.95
2023-01-29T17:11:34.582Z,27.20
2023-01-29T17:14:01.871Z,29.13
2023-01-29T17:16:31.303Z,25.50
2023-01-29T17:18:59.167Z,26.95
2023-01-29T17:21:26.731Z,26.77
2023-01-29T17:23:54.318Z,22.02
2023-01-29T17:26:23.021Z,21.70
2023-01-29T17:28:51.111Z,24.63
2023-01-29T17:31:18.583Z,29.30
2023-01-29T17:33:46.310Z,23.48
2023-01-29T17:36:15.146Z,28.23
2023-01-29T17:38:42.536Z,29.17
2023-01-29T17:41:30.461Z,29.95
2023-01-29T17:43:57.755Z,32.92
2023-01-29T17:46:25.054Z,18.42
2023-01-29T17:48:52.397Z,33.53
2023-01-29T17:51:19.761Z,26.80
2023-01-29T17:53:47.647Z,25.33
2023-01-29T17:56:16.067Z,30.63
2023-01-29T17:58:43.325Z,24.15
2023-01-29T18:01:10.630Z,29.75
2023-01-29T18:03:38.002Z,28.20
2023-01-29T18:06:07.812Z,22.73
2023-01-29T18:08:36.415Z,23.45
2023-01-29T18:11:03.623Z,27.85
2023-01-29T18:13:30.949Z,24.27
2023-01-29T18:15:58.286Z,26.13
2023-01-29T18:18:25.661Z,22.67
2023-01-29T18:20:52.972Z,29.20
2023-01-29T18:23:20.412Z,26.23
2023-01-29T18:25:47.661Z,29.05
2023-01-29T18:28:17.036Z,26.53
2023-01-29T18:30:47.082Z,28.33
2023-01-29T18:33:14.997Z,21.30
2023-01-29T18:35:44.106Z,26.05
2023-01-29T18:38:11.398Z,24.13
2023-01-29T18:40:38.819Z,25.63
2023-01-29T18:43:06.195Z,24.05
2023-01-29T18:45:33.420Z,29.52
2023-01-29T18:48:00.679Z,23.38
2023-01-29T18:50:28.078Z,25.75
2023-01-29T18:52:55.813Z,27.00
2023-01-29T18:55:23.429Z,22.73
2023-01-29T18:58:29.765Z,23.02
2023-01-29T19:00:41.546Z,22.40
2023-01-29T19:03:08.792Z,24.80
2023-01-29T19:05:36.074Z,24.87
2023-01-29T19:08:05.205Z,25.98
2023-01-29T19:10:32.569Z,20.80
2023-01-29T19:12:59.838Z,26.50
2023-01-29T19:15:27.262Z,28.27
2023-01-29T19:17:54.735Z,27.40
2023-01-29T19:20:21.977Z,26.40
2023-01-29T19:22:49.274Z,25.77
2023-01-29T19:25:17.905Z,21.08
2023-01-29T19:27:45.831Z,22.83
2023-01-29T19:30:13.373Z,21.97
2023-01-29T19:32:41.187Z,25.73
2023-01-29T19:35:08.660Z,22.95
2023-01-29T19:37:35.902Z,20.33
2023-01-29T19:40:03.295Z,23.42
2023-01-29T19:42:30.554Z,24.53
2023-01-29T19:44:57.920Z,24.00
2023-01-29T19:47:25.352Z,24.60
2023-01-29T19:49:52.587Z,21.83
2023-01-29T19:52:51.151Z,28.75
2023-01-29T19:55:19.694Z,30.13
2023-01-29T19:57:47.666Z,23.10
2023-01-29T20:00:15.525Z,28.65
2023-01-29T20:02:42.747Z,21.88
2023-01-29T20:05:12.052Z,29.48
2023-01-29T20:07:41.169Z,31.33
2023-01-29T20:10:11.260Z,27.17
2023-01-29T20:12:38.833Z,28.25
2023-01-29T20:15:07.334Z,24.73
2023-01-29T20:17:34.730Z,30.45
2023-01-29T20:20:02.580Z,25.53
2023-01-29T20:22:30.106Z,21.38
2023-01-29T20:24:57.484Z,21.52
2023-01-29T20:27:25.024Z,29.13
2023-01-29T20:29:52.731Z,22.38
2023-01-29T20:32:20.080Z,36.30
2023-01-29T20:34:51.948Z,25.92
2023-01-29T20:37:19.741Z,21.90
2023-01-29T20:39:47.359Z,24.05
2023-01-29T20:42:14.921Z,33.47
2023-01-29T20:44:42.446Z,27.63
2023-01-29T20:47:09.794Z,29.65
2023-01-29T20:49:37.011Z,33.47
2023-01-29T20:52:04.327Z,29.95
2023-01-29T20:54:33.186Z,29.17
2023-01-29T20:57:00.851Z,30.17
2023-01-29T20:59:29.200Z,24.58
2023-01-29T21:01:56.631Z,29.20
2023-01-29T21:04:24.055Z,35.95
2023-01-29T21:06:51.386Z,31.15
2023-01-29T21:09:18.644Z,26.67
2023-01-29T21:11:46.018Z,29.80
2023-01-29T21:14:14.174Z,35.63
2023-01-29T21:16:41.587Z,33.63
2023-01-29T21:19:09.517Z,31.35
2023-01-29T21:21:36.800Z,32.80
2023-01-29T21:24:04.163Z,28.20
2023-01-29T21:26:31.708Z,30.05
2023-01-29T21:28:59.067Z,29.63
2023-01-29T21:31:26.265Z,33.05
2023-01-29T21:34:01.885Z,28.20
2023-01-29T21:36:29.182Z,28.13
2023-01-29T21:38:56.439Z,33.88
2023-01-29T21:41:42.170Z,32.65
2023-01-29T21:44:09.463Z,26.70
2023-01-29T21:46:36.687Z,32.35
2023-01-29T21:49:04.350Z,27.93
2023-01-29T21:51:31.671Z,24.30
2023-01-29T21:53:58.959Z,32.58
2023-01-29T21:56:26.258Z,25.85
2023-01-29T21:58:53.541Z,33.03
2023-01-29T22:01:37.866Z,26.80
2023-01-29T22:04:08.119Z,29.05
2023-01-29T22:06:35.388Z,32.42
2023-01-29T22:09:02.610Z,27.00
2023-01-29T22:11:30.055Z,26.17
2023-01-29T22:13:57.317Z,23.37
2023-01-29T22:16:24.676Z,25.75
2023-01-29T22:18:51.919Z,30.27
2023-01-29T22:21:19.208Z,34.05
2023-01-29T22:23:48.525Z,28.40
2023-01-29T22:26:16.188Z,23.40
2023-01-29T22:28:43.595Z,28.83
2023-01-29T22:31:11.083Z,31.70
2023-01-29T22:33:38.644Z,32.17
2023-01-29T22:36:06.096Z,30.98
2023-01-29T22:38:33.394Z,23.70
2023-01-29T22:41:01.129Z,26.10
2023-01-29T22:43:29.332Z,28.55
2023-01-29T22:45:56.689Z,28.25
2023-01-29T22:48:24.388Z,31.00
2023-01-29T22:51:10.988Z,28.83
2023-01-29T22:53:38.352Z,33.63
2023-01-29T22:56:06.091Z,26.95
2023-01-29T22:58:33.410Z,21.55
2023-01-29T23:01:00.790Z,27.27
2023-01-29T23:03:28.069Z,28.40
2023-01-29T23:05:55.341Z,30.10
2023-01-29T23:08:22.604Z,20.25
2023-01-29T23:10:49.871Z,27.67
2023-01-29T23:13:17.270Z,27.80
2023-01-29T23:15:44.572Z,30.10
2023-01-29T23:18:11.910Z,29.80
2023-01-29T23:20:39.393Z,26.58
2023-01-29T23:23:06.735Z,25.67
2023-01-29T23:25:52.718Z,21.55
2023-01-29T23:28:19.997Z,29.80
2023-01-29T23:30:47.852Z,25.13
2023-01-29T23:33:15.380Z,30.95
2023-01-29T23:35:42.618Z,23.25
2023-01-29T23:38:09.897Z,25.30
2023-01-29T23:40:37.151Z,26.60
2023-01-29T23:43:04.439Z,28.08
2023-01-29T23:45:31.738Z,26.98
2023-01-29T23:47:58.955Z,25.55
2023-01-29T23:50:26.538Z,26.13
2023-01-29T23:52:53.823Z,22.50
2023-01-29T23:55:21.100Z,23.00
2023-01-29T23:57:48.502Z,25.15
